sensor_id;sensor_type;location;lat;lon;timestamp;temperature;humidity
3300;DHT22;1662;49.310;8.134;2023-07-29T00:01:52;19.10;99.90
3300;DHT22;1662;49.310;8.134;2023-07-29T00:04:19;19.10;99.90
3300;DHT22;1662;49.310;8.134;2023-07-29T00:06:45;19.10;99.90
3300;DHT22;1662;49.310;8.134;2023-07-29T00:09:11;19.10;99.90
3300;DHT22;1662;49.310;8.134;2023-07-29T00:11:40;19.00;99.90
3300;DHT22;1662;49.310;8.134;2023-07-29T00:14:06;19.10;99.90
3300;DHT22;1662;49.310;8.134;2023-07-29T00:16:31;19.00;99.90
3300;DHT22;1662;49.310;8.134;2023-07-29T00:18:57;19.00;99.90
3300;DHT22;1662;49.310;8.134;2023-07-29T00:21:23;19.00;99.90
3300;DHT22;1662;49.310;8.134;2023-07-29T00:23:51;19.00;99.90
3300;DHT22;1662;49.310;8.134;2023-07-29T00:26:16;19.00;99.90
3300;DHT22;1662;49.310;8.134;2023-07-29T00:28:42;19.00;99.90
3300;DHT22;1662;49.310;8.134;2023-07-29T00:31:08;19.00;99.90
3300;DHT22;1662;49.310;8.134;2023-07-29T00:33:33;19.00;99.90
3300;DHT22;1662;49.310;8.134;2023-07-29T00:35:59;19.00;99.90
3300;DHT22;1662;49.310;8.134;2023-07-29T00:38:27;18.90;99.90
3300;DHT22;1662;49.310;8.134;2023-07-29T00:40:55;18.90;99.90
3300;DHT22;1662;49.310;8.134;2023-07-29T00:43:22;18.80;99.90
3300;DHT22;1662;49.310;8.134;2023-07-29T00:45:47;18.90;99.90
3300;DHT22;1662;49.310;8.134;2023-07-29T00:48:13;18.90;99.90
3300;DHT22;1662;49.310;8.134;2023-07-29T00:50:39;18.90;99.90
3300;DHT22;1662;49.310;8.134;2023-07-29T00:53:05;18.90;99.90
3300;DHT22;1662;49.310;8.134;2023-07-29T00:55:31;18.90;99.90
3300;DHT22;1662;49.310;8.134;2023-07-29T00:57:57;18.90;99.90
3300;DHT22;1662;49.310;8.134;2023-07-29T01:00:23;18.90;99.90
3300;DHT22;1662;49.310;8.134;2023-07-29T01:02:49;18.90;99.90
3300;DHT22;1662;49.310;8.134;2023-07-29T01:05:16;18.90;99.90
3300;DHT22;1662;49.310;8.134;2023-07-29T01:07:51;18.90;99.90
3300;DHT22;1662;49.310;8.134;2023-07-29T01:13:04;18.80;99.90
3300;DHT22;1662;49.310;8.134;2023-07-29T01:15:43;18.80;99.90
3300;DHT22;1662;49.310;8.134;2023-07-29T01:18:26;18.80;99.90
3300;DHT22;1662;49.310;8.134;2023-07-29T01:20:59;18.80;99.90
3300;DHT22;1662;49.310;8.134;2023-07-29T01:23:32;18.70;99.90
3300;DHT22;1662;49.310;8.134;2023-07-29T01:25:57;18.70;99.90
3300;DHT22;1662;49.310;8.134;2023-07-29T01:28:24;18.70;99.90
3300;DHT22;1662;49.310;8.134;2023-07-29T01:30:52;18.70;99.90
3300;DHT22;1662;49.310;8.134;2023-07-29T01:33:30;18.60;99.90
3300;DHT22;1662;49.310;8.134;2023-07-29T01:36:02;18.60;99.90
3300;DHT22;1662;49.310;8.134;2023-07-29T01:38:29;18.60;99.90
3300;DHT22;1662;49.310;8.134;2023-07-29T01:41:03;18.60;99.90
3300;DHT22;1662;49.310;8.134;2023-07-29T01:43:30;18.70;99.90
3300;DHT22;1662;49.310;8.134;2023-07-29T01:45:56;18.60;99.90
3300;DHT22;1662;49.310;8.134;2023-07-29T01:48:22;18.70;99.90
3300;DHT22;1662;49.310;8.134;2023-07-29T01:50:48;18.60;99.90
3300;DHT22;1662;49.310;8.134;2023-07-29T01:53:13;18.60;99.90
3300;DHT22;1662;49.310;8.134;2023-07-29T01:55:40;18.60;99.90
3300;DHT22;1662;49.310;8.134;2023-07-29T01:58:05;18.60;99.90
3300;DHT22;1662;49.310;8.134;2023-07-29T02:00:31;18.60;99.90
3300;DHT22;1662;49.310;8.134;2023-07-29T02:02:59;18.60;99.90
3300;DHT22;1662;49.310;8.134;2023-07-29T02:05:24;18.60;99.90
3300;DHT22;1662;49.310;8.134;2023-07-29T02:07:52;18.50;99.90
3300;DHT22;1662;49.310;8.134;2023-07-29T02:10:17;18.50;99.90
3300;DHT22;1662;49.310;8.134;2023-07-29T02:12:46;18.50;99.90
3300;DHT22;1662;49.310;8.134;2023-07-29T02:15:11;18.50;99.90
3300;DHT22;1662;49.310;8.134;2023-07-29T02:17:37;18.50;99.90
3300;DHT22;1662;49.310;8.134;2023-07-29T02:20:06;18.40;99.90
3300;DHT22;1662;49.310;8.134;2023-07-29T02:22:32;18.40;99.90
3300;DHT22;1662;49.310;8.134;2023-07-29T02:24:58;18.50;99.90
3300;DHT22;1662;49.310;8.134;2023-07-29T02:27:26;18.40;99.90
3300;DHT22;1662;49.310;8.134;2023-07-29T02:29:52;18.40;99.90
3300;DHT22;1662;49.310;8.134;2023-07-29T02:32:18;18.40;99.90
3300;DHT22;1662;49.310;8.134;2023-07-29T02:34:44;18.40;99.90
3300;DHT22;1662;49.310;8.134;2023-07-29T02:37:10;18.40;99.90
3300;DHT22;1662;49.310;8.134;2023-07-29T02:39:36;18.40;99.90
3300;DHT22;1662;49.310;8.134;2023-07-29T02:42:01;18.40;99.90
3300;DHT22;1662;49.310;8.134;2023-07-29T02:44:27;18.40;99.90
3300;DHT22;1662;49.310;8.134;2023-07-29T02:46:53;18.40;99.90
3300;DHT22;1662;49.310;8.134;2023-07-29T02:49:23;18.40;99.90
3300;DHT22;1662;49.310;8.134;2023-07-29T02:51:49;18.40;99.90
3300;DHT22;1662;49.310;8.134;2023-07-29T02:54:14;18.40;99.90
3300;DHT22;1662;49.310;8.134;2023-07-29T02:56:42;18.40;99.90
3300;DHT22;1662;49.310;8.134;2023-07-29T02:59:08;18.40;99.90
3300;DHT22;1662;49.310;8.134;2023-07-29T03:01:34;18.40;99.90
3300;DHT22;1662;49.310;8.134;2023-07-29T03:03:59;18.50;99.90
3300;DHT22;1662;49.310;8.134;2023-07-29T03:06:27;18.50;99.90
3300;DHT22;1662;49.310;8.134;2023-07-29T03:08:53;18.50;99.90
3300;DHT22;1662;49.310;8.134;2023-07-29T03:11:19;18.60;99.90
3300;DHT22;1662;49.310;8.134;2023-07-29T03:13:44;18.60;99.90
3300;DHT22;1662;49.310;8.134;2023-07-29T03:16:12;18.60;99.90
3300;DHT22;1662;49.310;8.134;2023-07-29T03:18:38;18.60;99.90
3300;DHT22;1662;49.310;8.134;2023-07-29T03:21:04;18.60;99.90
3300;DHT22;1662;49.310;8.134;2023-07-29T03:23:30;18.70;99.90
3300;DHT22;1662;49.310;8.134;2023-07-29T03:25:57;18.70;99.90
3300;DHT22;1662;49.310;8.134;2023-07-29T03:28:33;18.70;99.90
3300;DHT22;1662;49.310;8.134;2023-07-29T03:30:59;18.70;99.90
3300;DHT22;1662;49.310;8.134;2023-07-29T03:33:27;18.70;99.90
3300;DHT22;1662;49.310;8.134;2023-07-29T03:35:53;18.70;99.90
3300;DHT22;1662;49.310;8.134;2023-07-29T03:38:18;18.70;99.90
3300;DHT22;1662;49.310;8.134;2023-07-29T03:40:44;18.70;99.90
3300;DHT22;1662;49.310;8.134;2023-07-29T03:43:10;18.70;99.90
3300;DHT22;1662;49.310;8.134;2023-07-29T03:45:36;18.70;99.90
3300;DHT22;1662;49.310;8.134;2023-07-29T03:48:02;18.70;99.90
3300;DHT22;1662;49.310;8.134;2023-07-29T03:50:29;18.70;99.90
3300;DHT22;1662;49.310;8.134;2023-07-29T03:52:55;18.70;99.90
3300;DHT22;1662;49.310;8.134;2023-07-29T03:55:20;18.70;99.90
3300;DHT22;1662;49.310;8.134;2023-07-29T03:57:48;18.80;99.90
3300;DHT22;1662;49.310;8.134;2023-07-29T04:00:14;18.80;99.90
3300;DHT22;1662;49.310;8.134;2023-07-29T04:02:42;18.80;99.90
3300;DHT22;1662;49.310;8.134;2023-07-29T04:05:07;18.80;99.90
3300;DHT22;1662;49.310;8.134;2023-07-29T04:07:34;18.80;99.90
3300;DHT22;1662;49.310;8.134;2023-07-29T04:10:03;18.80;99.90
3300;DHT22;1662;49.310;8.134;2023-07-29T04:12:29;18.80;99.90
3300;DHT22;1662;49.310;8.134;2023-07-29T04:14:54;18.80;99.90
3300;DHT22;1662;49.310;8.134;2023-07-29T04:17:20;18.80;99.90
3300;DHT22;1662;49.310;8.134;2023-07-29T04:19:46;18.70;99.90
3300;DHT22;1662;49.310;8.134;2023-07-29T04:22:11;18.70;99.90
3300;DHT22;1662;49.310;8.134;2023-07-29T04:24:37;18.70;99.90
3300;DHT22;1662;49.310;8.134;2023-07-29T04:27:03;18.70;99.90
3300;DHT22;1662;49.310;8.134;2023-07-29T04:29:31;18.70;99.90
3300;DHT22;1662;49.310;8.134;2023-07-29T04:31:57;18.70;99.90
3300;DHT22;1662;49.310;8.134;2023-07-29T04:34:25;18.70;99.90
3300;DHT22;1662;49.310;8.134;2023-07-29T04:36:50;18.70;99.90
3300;DHT22;1662;49.310;8.134;2023-07-29T04:39:16;18.80;99.90
3300;DHT22;1662;49.310;8.134;2023-07-29T04:41:42;18.70;99.90
3300;DHT22;1662;49.310;8.134;2023-07-29T04:44:07;18.70;99.90
3300;DHT22;1662;49.310;8.134;2023-07-29T04:46:35;18.70;99.90
3300;DHT22;1662;49.310;8.134;2023-07-29T04:49:01;18.70;99.90
3300;DHT22;1662;49.310;8.134;2023-07-29T04:51:26;18.70;99.90
3300;DHT22;1662;49.310;8.134;2023-07-29T04:53:52;18.70;99.90
3300;DHT22;1662;49.310;8.134;2023-07-29T04:56:17;18.70;99.90
3300;DHT22;1662;49.310;8.134;2023-07-29T04:58:43;18.70;99.90
3300;DHT22;1662;49.310;8.134;2023-07-29T05:01:08;18.70;99.90
3300;DHT22;1662;49.310;8.134;2023-07-29T05:03:34;18.70;99.90
3300;DHT22;1662;49.310;8.134;2023-07-29T05:06:00;18.70;99.90
3300;DHT22;1662;49.310;8.134;2023-07-29T05:08:27;18.70;99.90
3300;DHT22;1662;49.310;8.134;2023-07-29T05:10:53;18.70;99.90
3300;DHT22;1662;49.310;8.134;2023-07-29T05:13:19;18.70;99.90
3300;DHT22;1662;49.310;8.134;2023-07-29T05:15:46;18.80;99.90
3300;DHT22;1662;49.310;8.134;2023-07-29T05:18:12;18.80;99.90
3300;DHT22;1662;49.310;8.134;2023-07-29T05:20:40;18.80;99.90
3300;DHT22;1662;49.310;8.134;2023-07-29T05:23:06;18.80;99.90
3300;DHT22;1662;49.310;8.134;2023-07-29T05:25:32;18.80;99.90
3300;DHT22;1662;49.310;8.134;2023-07-29T05:28:00;18.80;99.90
3300;DHT22;1662;49.310;8.134;2023-07-29T05:30:26;18.80;99.90
3300;DHT22;1662;49.310;8.134;2023-07-29T05:32:52;18.80;99.90
3300;DHT22;1662;49.310;8.134;2023-07-29T05:35:18;18.80;99.90
3300;DHT22;1662;49.310;8.134;2023-07-29T05:37:46;18.80;99.90
3300;DHT22;1662;49.310;8.134;2023-07-29T05:40:11;18.80;99.90
3300;DHT22;1662;49.310;8.134;2023-07-29T05:42:39;18.80;99.90
3300;DHT22;1662;49.310;8.134;2023-07-29T05:45:05;18.80;99.90
3300;DHT22;1662;49.310;8.134;2023-07-29T05:47:31;18.80;99.90
3300;DHT22;1662;49.310;8.134;2023-07-29T05:49:57;18.80;99.90
3300;DHT22;1662;49.310;8.134;2023-07-29T05:52:22;18.80;99.90
3300;DHT22;1662;49.310;8.134;2023-07-29T05:54:48;18.80;99.90
3300;DHT22;1662;49.310;8.134;2023-07-29T05:57:14;18.80;99.90
3300;DHT22;1662;49.310;8.134;2023-07-29T05:59:39;18.80;99.90
3300;DHT22;1662;49.310;8.134;2023-07-29T06:02:05;18.90;99.90
3300;DHT22;1662;49.310;8.134;2023-07-29T06:04:31;18.90;99.90
3300;DHT22;1662;49.310;8.134;2023-07-29T06:06:57;18.90;99.90
3300;DHT22;1662;49.310;8.134;2023-07-29T06:09:23;18.90;99.90
3300;DHT22;1662;49.310;8.134;2023-07-29T06:11:48;18.90;99.90
3300;DHT22;1662;49.310;8.134;2023-07-29T06:14:14;19.00;99.90
3300;DHT22;1662;49.310;8.134;2023-07-29T06:16:42;19.00;99.90
3300;DHT22;1662;49.310;8.134;2023-07-29T06:19:07;19.00;99.90
3300;DHT22;1662;49.310;8.134;2023-07-29T06:21:34;19.00;99.90
3300;DHT22;1662;49.310;8.134;2023-07-29T06:24:00;19.00;99.90
3300;DHT22;1662;49.310;8.134;2023-07-29T06:26:28;19.10;99.90
3300;DHT22;1662;49.310;8.134;2023-07-29T06:28:54;19.10;99.90
3300;DHT22;1662;49.310;8.134;2023-07-29T06:31:19;19.10;99.90
3300;DHT22;1662;49.310;8.134;2023-07-29T06:33:45;19.20;99.90
3300;DHT22;1662;49.310;8.134;2023-07-29T06:36:11;19.20;99.90
3300;DHT22;1662;49.310;8.134;2023-07-29T06:38:37;19.20;99.90
3300;DHT22;1662;49.310;8.134;2023-07-29T06:41:04;19.30;99.90
3300;DHT22;1662;49.310;8.134;2023-07-29T06:43:29;19.30;99.90
3300;DHT22;1662;49.310;8.134;2023-07-29T06:45:55;19.40;99.90
3300;DHT22;1662;49.310;8.134;2023-07-29T06:48:21;19.40;99.90
3300;DHT22;1662;49.310;8.134;2023-07-29T06:50:46;19.50;99.90
3300;DHT22;1662;49.310;8.134;2023-07-29T06:53:12;19.50;99.90
3300;DHT22;1662;49.310;8.134;2023-07-29T06:55:38;19.60;99.90
3300;DHT22;1662;49.310;8.134;2023-07-29T06:58:04;19.60;99.90
3300;DHT22;1662;49.310;8.134;2023-07-29T07:00:30;19.70;99.90
3300;DHT22;1662;49.310;8.134;2023-07-29T07:02:55;19.70;99.90
3300;DHT22;1662;49.310;8.134;2023-07-29T07:05:21;19.80;99.90
3300;DHT22;1662;49.310;8.134;2023-07-29T07:07:46;19.80;99.90
3300;DHT22;1662;49.310;8.134;2023-07-29T07:10:12;19.90;99.90
3300;DHT22;1662;49.310;8.134;2023-07-29T07:12:38;20.00;99.90
3300;DHT22;1662;49.310;8.134;2023-07-29T07:15:04;20.10;99.90
3300;DHT22;1662;49.310;8.134;2023-07-29T07:17:29;20.20;99.90
3300;DHT22;1662;49.310;8.134;2023-07-29T07:19:55;20.20;99.90
3300;DHT22;1662;49.310;8.134;2023-07-29T07:22:21;20.20;99.90
3300;DHT22;1662;49.310;8.134;2023-07-29T07:24:46;20.20;99.90
3300;DHT22;1662;49.310;8.134;2023-07-29T07:27:12;20.30;99.90
3300;DHT22;1662;49.310;8.134;2023-07-29T07:29:37;20.30;99.90
3300;DHT22;1662;49.310;8.134;2023-07-29T07:32:03;20.30;99.90
3300;DHT22;1662;49.310;8.134;2023-07-29T07:34:31;20.30;99.90
3300;DHT22;1662;49.310;8.134;2023-07-29T07:36:58;20.30;99.90
3300;DHT22;1662;49.310;8.134;2023-07-29T07:39:24;20.40;99.90
3300;DHT22;1662;49.310;8.134;2023-07-29T07:41:49;20.40;99.90
3300;DHT22;1662;49.310;8.134;2023-07-29T07:44:15;20.40;99.90
3300;DHT22;1662;49.310;8.134;2023-07-29T07:46:43;20.40;99.90
3300;DHT22;1662;49.310;8.134;2023-07-29T07:49:08;20.50;99.90
3300;DHT22;1662;49.310;8.134;2023-07-29T07:51:34;20.40;99.90
3300;DHT22;1662;49.310;8.134;2023-07-29T07:54:00;20.50;99.90
3300;DHT22;1662;49.310;8.134;2023-07-29T07:56:26;20.50;99.90
3300;DHT22;1662;49.310;8.134;2023-07-29T07:58:51;20.50;99.90
3300;DHT22;1662;49.310;8.134;2023-07-29T08:01:17;20.50;99.90
3300;DHT22;1662;49.310;8.134;2023-07-29T08:03:42;20.60;99.90
3300;DHT22;1662;49.310;8.134;2023-07-29T08:06:08;20.60;99.90
3300;DHT22;1662;49.310;8.134;2023-07-29T08:08:33;20.60;99.90
3300;DHT22;1662;49.310;8.134;2023-07-29T08:10:59;20.60;99.90
3300;DHT22;1662;49.310;8.134;2023-07-29T08:13:27;20.60;99.90
3300;DHT22;1662;49.310;8.134;2023-07-29T08:15:53;20.70;99.90
3300;DHT22;1662;49.310;8.134;2023-07-29T08:18:18;20.70;99.90
3300;DHT22;1662;49.310;8.134;2023-07-29T08:20:58;20.70;99.90
3300;DHT22;1662;49.310;8.134;2023-07-29T08:23:25;20.70;99.90
3300;DHT22;1662;49.310;8.134;2023-07-29T08:25:55;20.70;99.90
3300;DHT22;1662;49.310;8.134;2023-07-29T08:28:24;20.80;99.90
3300;DHT22;1662;49.310;8.134;2023-07-29T08:30:50;20.80;99.90
3300;DHT22;1662;49.310;8.134;2023-07-29T08:33:16;20.90;99.90
3300;DHT22;1662;49.310;8.134;2023-07-29T08:35:41;20.90;99.90
3300;DHT22;1662;49.310;8.134;2023-07-29T08:38:07;21.00;99.90
3300;DHT22;1662;49.310;8.134;2023-07-29T08:40:34;21.10;99.90
3300;DHT22;1662;49.310;8.134;2023-07-29T08:43:04;21.20;99.90
3300;DHT22;1662;49.310;8.134;2023-07-29T08:45:35;21.30;99.90
3300;DHT22;1662;49.310;8.134;2023-07-29T08:48:04;21.40;99.90
3300;DHT22;1662;49.310;8.134;2023-07-29T08:50:32;21.50;99.90
3300;DHT22;1662;49.310;8.134;2023-07-29T08:52:59;21.60;99.90
3300;DHT22;1662;49.310;8.134;2023-07-29T08:55:26;21.70;99.90
3300;DHT22;1662;49.310;8.134;2023-07-29T08:57:52;21.80;99.90
3300;DHT22;1662;49.310;8.134;2023-07-29T09:00:19;21.90;99.90
3300;DHT22;1662;49.310;8.134;2023-07-29T09:02:45;21.90;99.90
3300;DHT22;1662;49.310;8.134;2023-07-29T09:05:10;22.00;99.90
3300;DHT22;1662;49.310;8.134;2023-07-29T09:07:36;22.00;99.90
3300;DHT22;1662;49.310;8.134;2023-07-29T09:10:02;22.10;99.90
3300;DHT22;1662;49.310;8.134;2023-07-29T09:12:28;22.20;99.90
3300;DHT22;1662;49.310;8.134;2023-07-29T09:14:54;22.30;99.90
3300;DHT22;1662;49.310;8.134;2023-07-29T09:17:22;22.40;99.90
3300;DHT22;1662;49.310;8.134;2023-07-29T09:19:51;22.30;99.90
3300;DHT22;1662;49.310;8.134;2023-07-29T09:22:20;22.30;99.90
3300;DHT22;1662;49.310;8.134;2023-07-29T09:24:47;22.20;99.90
3300;DHT22;1662;49.310;8.134;2023-07-29T09:27:28;22.20;99.90
3300;DHT22;1662;49.310;8.134;2023-07-29T09:29:58;22.30;99.90
3300;DHT22;1662;49.310;8.134;2023-07-29T09:32:24;22.30;99.90
3300;DHT22;1662;49.310;8.134;2023-07-29T09:34:51;22.40;99.90
3300;DHT22;1662;49.310;8.134;2023-07-29T09:37:25;22.50;99.90
3300;DHT22;1662;49.310;8.134;2023-07-29T09:39:51;22.60;99.90
3300;DHT22;1662;49.310;8.134;2023-07-29T09:42:21;22.70;99.90
3300;DHT22;1662;49.310;8.134;2023-07-29T09:44:48;22.70;99.90
3300;DHT22;1662;49.310;8.134;2023-07-29T09:47:22;22.70;99.90
3300;DHT22;1662;49.310;8.134;2023-07-29T09:49:48;22.80;99.90
3300;DHT22;1662;49.310;8.134;2023-07-29T09:52:22;23.00;99.90
3300;DHT22;1662;49.310;8.134;2023-07-29T09:54:48;23.10;99.90
3300;DHT22;1662;49.310;8.134;2023-07-29T09:59:40;23.20;99.90
3300;DHT22;1662;49.310;8.134;2023-07-29T10:02:13;23.20;99.90
3300;DHT22;1662;49.310;8.134;2023-07-29T10:04:41;23.30;99.90
3300;DHT22;1662;49.310;8.134;2023-07-29T10:07:07;23.50;99.90
3300;DHT22;1662;49.310;8.134;2023-07-29T10:09:33;23.60;99.90
3300;DHT22;1662;49.310;8.134;2023-07-29T10:11:59;23.60;99.90
3300;DHT22;1662;49.310;8.134;2023-07-29T10:14:28;23.60;99.90
3300;DHT22;1662;49.310;8.134;2023-07-29T10:16:55;23.70;99.90
3300;DHT22;1662;49.310;8.134;2023-07-29T10:19:27;23.80;99.90
3300;DHT22;1662;49.310;8.134;2023-07-29T10:21:59;23.90;99.90
3300;DHT22;1662;49.310;8.134;2023-07-29T10:24:30;24.10;99.90
3300;DHT22;1662;49.310;8.134;2023-07-29T10:26:59;24.30;99.90
3300;DHT22;1662;49.310;8.134;2023-07-29T10:29:30;24.30;99.90
3300;DHT22;1662;49.310;8.134;2023-07-29T10:31:57;24.20;99.90
3300;DHT22;1662;49.310;8.134;2023-07-29T10:34:24;24.10;99.90
3300;DHT22;1662;49.310;8.134;2023-07-29T10:36:50;24.00;99.90
3300;DHT22;1662;49.310;8.134;2023-07-29T10:39:16;23.90;99.90
3300;DHT22;1662;49.310;8.134;2023-07-29T10:42:02;23.80;99.90
3300;DHT22;1662;49.310;8.134;2023-07-29T10:47:15;23.50;99.90
3300;DHT22;1662;49.310;8.134;2023-07-29T10:49:44;23.40;99.90
3300;DHT22;1662;49.310;8.134;2023-07-29T10:52:14;23.30;99.90
3300;DHT22;1662;49.310;8.134;2023-07-29T10:54:47;23.40;99.90
3300;DHT22;1662;49.310;8.134;2023-07-29T10:57:15;23.50;99.90
3300;DHT22;1662;49.310;8.134;2023-07-29T10:59:41;23.50;99.90
3300;DHT22;1662;49.310;8.134;2023-07-29T11:02:18;23.60;99.90
3300;DHT22;1662;49.310;8.134;2023-07-29T11:04:50;23.80;99.90
3300;DHT22;1662;49.310;8.134;2023-07-29T11:17:33;24.90;99.90
3300;DHT22;1662;49.310;8.134;2023-07-29T11:20:03;25.00;99.90
3300;DHT22;1662;49.310;8.134;2023-07-29T11:22:30;25.00;99.90
3300;DHT22;1662;49.310;8.134;2023-07-29T11:24:56;25.10;99.90
3300;DHT22;1662;49.310;8.134;2023-07-29T11:27:24;25.10;99.90
3300;DHT22;1662;49.310;8.134;2023-07-29T11:29:49;25.10;99.90
3300;DHT22;1662;49.310;8.134;2023-07-29T11:32:15;25.10;99.90
3300;DHT22;1662;49.310;8.134;2023-07-29T11:34:41;25.10;99.90
3300;DHT22;1662;49.310;8.134;2023-07-29T11:37:10;25.10;99.90
3300;DHT22;1662;49.310;8.134;2023-07-29T11:39:40;25.20;99.90
3300;DHT22;1662;49.310;8.134;2023-07-29T11:42:06;25.40;99.90
3300;DHT22;1662;49.310;8.134;2023-07-29T11:44:32;25.60;99.90
3300;DHT22;1662;49.310;8.134;2023-07-29T11:47:00;25.60;99.90
3300;DHT22;1662;49.310;8.134;2023-07-29T11:49:26;25.80;99.90
3300;DHT22;1662;49.310;8.134;2023-07-29T11:51:52;25.90;99.90
3300;DHT22;1662;49.310;8.134;2023-07-29T11:54:18;26.10;99.90
3300;DHT22;1662;49.310;8.134;2023-07-29T11:56:47;26.20;99.90
3300;DHT22;1662;49.310;8.134;2023-07-29T11:59:13;26.30;99.90
3300;DHT22;1662;49.310;8.134;2023-07-29T12:01:40;26.40;99.90
3300;DHT22;1662;49.310;8.134;2023-07-29T12:04:05;26.50;99.90
3300;DHT22;1662;49.310;8.134;2023-07-29T12:06:37;26.60;99.90
3300;DHT22;1662;49.310;8.134;2023-07-29T12:09:03;26.60;99.90
3300;DHT22;1662;49.310;8.134;2023-07-29T12:11:29;26.70;99.90
3300;DHT22;1662;49.310;8.134;2023-07-29T12:13:55;26.80;99.90
3300;DHT22;1662;49.310;8.134;2023-07-29T12:16:21;26.90;99.90
3300;DHT22;1662;49.310;8.134;2023-07-29T12:21:14;27.10;99.90
3300;DHT22;1662;49.310;8.134;2023-07-29T12:23:40;27.20;99.90
3300;DHT22;1662;49.310;8.134;2023-07-29T12:26:05;27.30;99.90
3300;DHT22;1662;49.310;8.134;2023-07-29T12:28:31;27.50;99.90
3300;DHT22;1662;49.310;8.134;2023-07-29T12:30:58;27.50;99.90
3300;DHT22;1662;49.310;8.134;2023-07-29T12:33:42;27.40;99.90
3300;DHT22;1662;49.310;8.134;2023-07-29T12:36:08;27.30;99.90
3300;DHT22;1662;49.310;8.134;2023-07-29T12:38:33;27.30;99.90
3300;DHT22;1662;49.310;8.134;2023-07-29T12:40:59;27.50;99.90
3300;DHT22;1662;49.310;8.134;2023-07-29T12:43:25;27.60;99.90
3300;DHT22;1662;49.310;8.134;2023-07-29T12:45:51;27.90;99.90
3300;DHT22;1662;49.310;8.134;2023-07-29T12:48:17;27.90;99.90
3300;DHT22;1662;49.310;8.134;2023-07-29T12:50:42;27.90;99.90
3300;DHT22;1662;49.310;8.134;2023-07-29T12:53:09;27.80;99.90
3300;DHT22;1662;49.310;8.134;2023-07-29T12:55:38;27.90;99.90
3300;DHT22;1662;49.310;8.134;2023-07-29T12:58:06;27.90;99.90
3300;DHT22;1662;49.310;8.134;2023-07-29T13:00:31;28.00;99.90
3300;DHT22;1662;49.310;8.134;2023-07-29T13:02:57;27.90;99.90
3300;DHT22;1662;49.310;8.134;2023-07-29T13:05:22;27.80;99.90
3300;DHT22;1662;49.310;8.134;2023-07-29T13:07:48;27.90;99.90
3300;DHT22;1662;49.310;8.134;2023-07-29T13:10:14;27.90;99.90
3300;DHT22;1662;49.310;8.134;2023-07-29T13:12:40;27.90;99.90
3300;DHT22;1662;49.310;8.134;2023-07-29T13:15:07;28.10;99.90
3300;DHT22;1662;49.310;8.134;2023-07-29T13:17:33;28.20;99.90
3300;DHT22;1662;49.310;8.134;2023-07-29T13:19:59;28.30;99.90
3300;DHT22;1662;49.310;8.134;2023-07-29T13:22:25;28.40;99.90
3300;DHT22;1662;49.310;8.134;2023-07-29T13:24:52;28.30;99.90
3300;DHT22;1662;49.310;8.134;2023-07-29T13:27:18;28.30;99.90
3300;DHT22;1662;49.310;8.134;2023-07-29T13:29:43;28.30;99.90
3300;DHT22;1662;49.310;8.134;2023-07-29T13:32:09;28.30;99.90
3300;DHT22;1662;49.310;8.134;2023-07-29T13:34:35;28.40;99.90
3300;DHT22;1662;49.310;8.134;2023-07-29T13:37:01;28.40;99.90
3300;DHT22;1662;49.310;8.134;2023-07-29T13:39:26;28.50;99.90
3300;DHT22;1662;49.310;8.134;2023-07-29T13:41:53;28.70;99.90
3300;DHT22;1662;49.310;8.134;2023-07-29T13:44:19;28.80;99.90
3300;DHT22;1662;49.310;8.134;2023-07-29T13:46:45;28.90;99.90
3300;DHT22;1662;49.310;8.134;2023-07-29T13:49:10;29.20;99.90
3300;DHT22;1662;49.310;8.134;2023-07-29T13:51:37;29.40;99.90
3300;DHT22;1662;49.310;8.134;2023-07-29T13:54:02;29.40;99.90
3300;DHT22;1662;49.310;8.134;2023-07-29T13:56:28;29.50;99.90
3300;DHT22;1662;49.310;8.134;2023-07-29T13:58:53;29.40;99.90
3300;DHT22;1662;49.310;8.134;2023-07-29T14:01:24;29.40;99.90
3300;DHT22;1662;49.310;8.134;2023-07-29T14:03:52;29.50;99.90
3300;DHT22;1662;49.310;8.134;2023-07-29T14:06:17;29.50;99.90
3300;DHT22;1662;49.310;8.134;2023-07-29T14:08:43;29.40;99.90
3300;DHT22;1662;49.310;8.134;2023-07-29T14:11:09;29.20;99.90
3300;DHT22;1662;49.310;8.134;2023-07-29T14:13:34;29.20;99.90
3300;DHT22;1662;49.310;8.134;2023-07-29T14:16:03;29.20;99.90
3300;DHT22;1662;49.310;8.134;2023-07-29T14:18:30;29.10;99.90
3300;DHT22;1662;49.310;8.134;2023-07-29T14:20:55;29.10;99.90
3300;DHT22;1662;49.310;8.134;2023-07-29T14:23:21;29.10;99.90
3300;DHT22;1662;49.310;8.134;2023-07-29T14:25:46;29.30;99.90
3300;DHT22;1662;49.310;8.134;2023-07-29T14:28:13;29.60;99.90
3300;DHT22;1662;49.310;8.134;2023-07-29T14:30:39;29.60;99.90
3300;DHT22;1662;49.310;8.134;2023-07-29T14:33:06;29.60;99.90
3300;DHT22;1662;49.310;8.134;2023-07-29T14:35:32;29.70;99.90
3300;DHT22;1662;49.310;8.134;2023-07-29T14:37:57;29.90;99.90
3300;DHT22;1662;49.310;8.134;2023-07-29T14:40:23;30.10;99.90
3300;DHT22;1662;49.310;8.134;2023-07-29T14:42:49;30.00;99.90
3300;DHT22;1662;49.310;8.134;2023-07-29T14:45:14;29.70;99.90
3300;DHT22;1662;49.310;8.134;2023-07-29T14:47:42;29.30;99.90
3300;DHT22;1662;49.310;8.134;2023-07-29T14:50:08;29.20;99.90
3300;DHT22;1662;49.310;8.134;2023-07-29T14:52:33;29.00;99.90
3300;DHT22;1662;49.310;8.134;2023-07-29T14:54:59;28.70;99.90
3300;DHT22;1662;49.310;8.134;2023-07-29T14:57:24;28.40;99.90
3300;DHT22;1662;49.310;8.134;2023-07-29T14:59:50;28.30;99.90
3300;DHT22;1662;49.310;8.134;2023-07-29T15:02:16;28.30;99.90
3300;DHT22;1662;49.310;8.134;2023-07-29T15:04:41;28.50;99.90
3300;DHT22;1662;49.310;8.134;2023-07-29T15:07:07;28.90;99.90
3300;DHT22;1662;49.310;8.134;2023-07-29T15:09:32;29.20;99.90
3300;DHT22;1662;49.310;8.134;2023-07-29T15:11:58;29.40;99.90
3300;DHT22;1662;49.310;8.134;2023-07-29T15:14:24;29.40;99.90
3300;DHT22;1662;49.310;8.134;2023-07-29T15:16:49;29.40;99.90
3300;DHT22;1662;49.310;8.134;2023-07-29T15:19:15;29.40;99.90
3300;DHT22;1662;49.310;8.134;2023-07-29T15:21:40;29.40;99.90
3300;DHT22;1662;49.310;8.134;2023-07-29T15:24:06;29.20;99.90
3300;DHT22;1662;49.310;8.134;2023-07-29T15:26:31;29.20;99.90
3300;DHT22;1662;49.310;8.134;2023-07-29T15:29:00;29.10;99.90
3300;DHT22;1662;49.310;8.134;2023-07-29T15:31:25;29.00;99.90
3300;DHT22;1662;49.310;8.134;2023-07-29T15:33:51;28.70;99.90
3300;DHT22;1662;49.310;8.134;2023-07-29T15:36:17;28.40;99.90
3300;DHT22;1662;49.310;8.134;2023-07-29T15:38:43;28.30;99.90
3300;DHT22;1662;49.310;8.134;2023-07-29T15:41:08;28.10;99.90
3300;DHT22;1662;49.310;8.134;2023-07-29T15:43:34;27.90;99.90
3300;DHT22;1662;49.310;8.134;2023-07-29T15:46:00;27.90;99.90
3300;DHT22;1662;49.310;8.134;2023-07-29T15:48:25;27.90;99.90
3300;DHT22;1662;49.310;8.134;2023-07-29T15:50:51;27.80;99.90
3300;DHT22;1662;49.310;8.134;2023-07-29T15:53:17;27.70;99.90
3300;DHT22;1662;49.310;8.134;2023-07-29T15:55:42;27.50;99.90
3300;DHT22;1662;49.310;8.134;2023-07-29T15:58:08;27.40;99.90
3300;DHT22;1662;49.310;8.134;2023-07-29T16:00:33;27.40;99.90
3300;DHT22;1662;49.310;8.134;2023-07-29T16:02:59;27.30;99.90
3300;DHT22;1662;49.310;8.134;2023-07-29T16:05:24;27.10;99.90
3300;DHT22;1662;49.310;8.134;2023-07-29T16:07:50;26.70;99.90
3300;DHT22;1662;49.310;8.134;2023-07-29T16:10:16;26.40;99.90
3300;DHT22;1662;49.310;8.134;2023-07-29T16:12:43;26.20;99.90
3300;DHT22;1662;49.310;8.134;2023-07-29T16:15:09;26.10;99.90
3300;DHT22;1662;49.310;8.134;2023-07-29T16:17:35;25.80;99.90
3300;DHT22;1662;49.310;8.134;2023-07-29T16:20:04;25.70;99.90